Time;durP1;ratioP1;P1;durP2;ratioP2;P2;SDS_P1;SDS_P2;PMS_P1;PMS_P2;Temp;Humidity;BMP_temperature;BMP_pressure;BME280_temperature;BME280_humidity;BME280_pressure;Samples;Min_cycle;Max_cycle;Signal;HPM_P1;HPM_P2
2022/09/25 00:03:29;;;;;;;;;;;;;;;;;;10418150;28;19948;-60
2022/09/25 00:08:32;;;;;;;;;;;;;;;;;;10417237;28;19979;-60
2022/09/25 00:13:34;;;;;;;;;;;;;;;;;;10417165;28;19929;-60
2022/09/25 00:23:59;;;;;;;;;;;;;;;;;;10416842;28;19979;-60
2022/09/25 00:29:01;;;;;;;;;;;;;;;;;;10416284;28;19929;-60
2022/09/25 00:34:03;;;;;;;;;;;;;;;;;;10416997;28;19929;-60
2022/09/25 00:39:05;;;;;;;;;;;;;;;;;;10415113;28;19932;-60
2022/09/25 00:44:07;;;;;;;;;;;;;;;;;;10415146;28;19952;-60
2022/09/25 00:49:10;;;;;;;;;;;;;;;;;;10414897;28;20419;-60
2022/09/25 00:54:14;;;;;;;;;;;;;;;;;;10415775;28;20369;-60
2022/09/25 00:59:16;;;;;;;;;;;;;;;;;;10415442;28;19925;-60
2022/09/25 01:04:21;;;;;;;;;;;;;;;;;;10415558;28;20331;-60
2022/09/25 01:09:23;;;;;;;;;;;;;;;;;;10415347;28;19929;-60
2022/09/25 01:14:25;;;;;;;;;;;;;;;;;;10413597;28;19925;-59
2022/09/25 01:19:27;;;;;;;;;;;;;;;;;;10415141;28;19925;-59
2022/09/25 01:24:29;;;;;;;;;;;;;;;;;;10415159;28;20265;-59
2022/09/25 01:29:31;;;;;;;;;;;;;;;;;;10414774;28;20028;-60
2022/09/25 01:34:33;;;;;;;;;;;;;;;;;;10414623;28;19929;-60
2022/09/25 01:39:35;;;;;;;;;;;;;;;;;;10414896;28;20430;-59
2022/09/25 01:44:38;;;;;;;;;;;;;;;;;;10413819;28;19994;-59
2022/09/25 01:49:40;;;;;;;;;;;;;;;;;;10418050;28;20377;-60
2022/09/25 01:54:42;;;;;;;;;;;;;;;;;;10422020;28;19933;-60
2022/09/25 01:59:44;;;;;;;;;;;;;;;;;;10421595;28;19929;-60
2022/09/25 02:04:46;;;;;;;;;;;;;;;;;;10422410;28;19929;-60
2022/09/25 02:09:48;;;;;;;;;;;;;;;;;;10421949;28;20267;-60
2022/09/25 02:14:50;;;;;;;;;;;;;;;;;;10421513;28;19971;-60
2022/09/25 02:25:13;;;;;;;;;;;;;;;;;;10421395;28;19929;-60
2022/09/25 02:30:16;;;;;;;;;;;;;;;;;;10421786;28;19925;-59
2022/09/25 02:35:18;;;;;;;;;;;;;;;;;;10420703;28;19979;-59
2022/09/25 02:40:20;;;;;;;;;;;;;;;;;;10420875;28;20365;-59
2022/09/25 02:45:22;;;;;;;;;;;;;;;;;;10421290;28;19928;-59
2022/09/25 02:50:24;;;;;;;;;;;;;;;;;;10419322;28;19933;-59
2022/09/25 02:55:26;;;;;;;;;;;;;;;;;;10419261;28;19925;-59
2022/09/25 03:00:28;;;;;;;;;;;;;;;;;;10433370;22;20417;-63
2022/09/25 03:05:30;;;;;;;;;;;;;;;;;;10418402;28;19972;-63
2022/09/25 03:10:35;;;;;;;;;;;;;;;;;;10417191;28;19929;-63
2022/09/25 03:15:37;;;;;;;;;;;;;;;;;;10417334;28;19972;-63
2022/09/25 03:20:39;;;;;;;;;;;;;;;;;;10398783;28;19929;-61
2022/09/25 03:25:41;;;;;;;;;;;;;;;;;;10417123;28;20372;-61
2022/09/25 03:30:48;;;;;;;;;;;;;;;;;;10416647;28;19936;-61
2022/09/25 03:35:50;;;;;;;;;;;;;;;;;;10415861;28;19960;-62
2022/09/25 03:40:52;;;;;;;;;;;;;;;;;;10417244;28;19929;-62
2022/09/25 03:45:54;;;;;;;;;;;;;;;;;;10417345;28;19960;-62
2022/09/25 03:50:56;;;;;;;;;;;;;;;;;;10396884;28;19972;-62
2022/09/25 03:55:58;;;;;;;;;;;;;;;;;;10415815;28;19957;-62
2022/09/25 04:01:00;;;;;;;;;;;;;;;;;;10353413;28;1784679;-61
2022/09/25 04:06:03;;;;;;;;;;;;;;;;;;10417571;28;20370;-62
2022/09/25 04:11:05;;;;;;;;;;;;;;;;;;10416887;28;19933;-62
2022/09/25 04:16:08;;;;;;;;;;;;;;;;;;10416632;28;20359;-62
2022/09/25 04:21:10;;;;;;;;;;;;;;;;;;10416214;28;20398;-62
2022/09/25 04:26:12;;;;;;;;;;;;;;;;;;10417405;28;19975;-62
2022/09/25 04:31:14;;;;;;;;;;;;;;;;;;10416506;28;19972;-62
2022/09/25 04:36:17;;;;;;;;;;;;;;;;;;10415427;28;20295;-62
2022/09/25 04:41:20;;;;;;;;;;;;;;;;;;10416935;28;19935;-62
2022/09/25 04:46:22;;;;;;;;;;;;;;;;;;10415325;28;19925;-62
2022/09/25 04:51:24;;;;;;;;;;;;;;;;;;10415955;28;19925;-62
2022/09/25 04:56:26;;;;;;;;;;;;;;;;;;10414908;28;19925;-62
2022/09/25 05:01:28;;;;;;;;;;;;;;;;;;10415892;28;20371;-62
2022/09/25 05:06:30;;;;;;;;;;;;;;;;;;10416268;28;19925;-62
2022/09/25 05:11:32;;;;;;;;;;;;;;;;;;10415059;28;19979;-62
2022/09/25 05:16:34;;;;;;;;;;;;;;;;;;10413799;28;19979;-62
2022/09/25 05:21:36;;;;;;;;;;;;;;;;;;10415496;28;20317;-62
2022/09/25 05:26:39;;;;;;;;;;;;;;;;;;10423760;28;19990;-62
2022/09/25 05:31:45;;;;;;;;;;;;;;;;;;10422504;28;19972;-62
2022/09/25 05:36:47;;;;;;;;;;;;;;;;;;10422369;28;20391;-62
2022/09/25 05:41:49;;;;;;;;;;;;;;;;;;10423778;28;19929;-62
2022/09/25 05:46:51;;;;;;;;;;;;;;;;;;10422598;28;19925;-62
2022/09/25 05:51:53;;;;;;;;;;;;;;;;;;10422403;28;19979;-62
2022/09/25 05:56:55;;;;;;;;;;;;;;;;;;10420784;28;19947;-61
2022/09/25 06:01:57;;;;;;;;;;;;;;;;;;10423053;28;19925;-62
2022/09/25 06:07:00;;;;;;;;;;;;;;;;;;10422204;28;19933;-62
2022/09/25 06:12:02;;;;;;;;;;;;;;;;;;10421048;28;20308;-61
2022/09/25 06:17:04;;;;;;;;;;;;;;;;;;10420864;28;19925;-62
2022/09/25 06:22:06;;;;;;;;;;;;;;;;;;10421617;28;19971;-61
2022/09/25 06:27:08;;;;;;;;;;;;;;;;;;10422104;28;19925;-61
2022/09/25 06:32:10;;;;;;;;;;;;;;;;;;10420140;28;20456;-61
2022/09/25 06:37:12;;;;;;;;;;;;;;;;;;10419202;28;19925;-61
2022/09/25 06:42:14;;;;;;;;;;;;;;;;;;10419801;28;20342;-62
2022/09/25 06:47:16;;;;;;;;;;;;;;;;;;10403810;28;19925;-61
2022/09/25 06:52:21;;;;;;;;;;;;;;;;;;10420456;28;19991;-61
2022/09/25 06:57:23;;;;;;;;;;;;;;;;;;10420197;28;19925;-62
2022/09/25 07:07:46;;;;;;;;;;;;;;;;;;10420089;28;20388;-61
2022/09/25 07:12:48;;;;;;;;;;;;;;;;;;10416187;28;19929;-62
2022/09/25 07:17:50;;;;;;;;;;;;;;;;;;10418527;28;19929;-62
2022/09/25 07:22:53;;;;;;;;;;;;;;;;;;10419358;28;20265;-62
2022/09/25 07:27:55;;;;;;;;;;;;;;;;;;10419128;28;20376;-62
2022/09/25 07:32:57;;;;;;;;;;;;;;;;;;10398580;28;19925;-61
2022/09/25 07:38:01;;;;;;;;;;;;;;;;;;10418604;28;19964;-62
2022/09/25 07:43:03;;;;;;;;;;;;;;;;;;10418121;28;19929;-62
2022/09/25 07:48:05;;;;;;;;;;;;;;;;;;10417532;28;19979;-62
2022/09/25 07:53:07;;;;;;;;;;;;;;;;;;10416219;28;19995;-62
2022/09/25 07:58:09;;;;;;;;;;;;;;;;;;10401026;28;19929;-63
2022/09/25 08:03:11;;;;;;;;;;;;;;;;;;10417758;28;19979;-62
2022/09/25 08:08:13;;;;;;;;;;;;;;;;;;10418169;28;19925;-62
2022/09/25 08:13:17;;;;;;;;;;;;;;;;;;10417810;28;19925;-63
2022/09/25 08:18:19;;;;;;;;;;;;;;;;;;10418185;28;19929;-62
2022/09/25 08:23:21;;;;;;;;;;;;;;;;;;10417533;28;19925;-63
2022/09/25 08:28:23;;;;;;;;;;;;;;;;;;10416791;28;19978;-62
2022/09/25 08:33:25;;;;;;;;;;;;;;;;;;10417165;28;19952;-62
2022/09/25 08:38:27;;;;;;;;;;;;;;;;;;10399670;28;19925;-62
2022/09/25 08:43:29;;;;;;;;;;;;;;;;;;10416333;28;19929;-62
2022/09/25 08:53:52;;;;;;;;;;;;;;;;;;10416570;28;19925;-62
2022/09/25 08:58:54;;;;;;;;;;;;;;;;;;10415734;28;19975;-63
2022/09/25 09:03:56;;;;;;;;;;;;;;;;;;10415652;28;19929;-63
2022/09/25 09:08:59;;;;;;;;;;;;;;;;;;10415639;28;19929;-63
2022/09/25 09:14:02;;;;;;;;;;;;;;;;;;10415391;28;20377;-63
2022/09/25 09:19:04;;;;;;;;;;;;;;;;;;10416013;28;20012;-63
2022/09/25 09:24:06;;;;;;;;;;;;;;;;;;10415924;28;19926;-64
2022/09/25 09:29:08;;;;;;;;;;;;;;;;;;10415812;28;19925;-63
2022/09/25 09:34:10;;;;;;;;;;;;;;;;;;10415657;28;19929;-63
2022/09/25 09:39:12;;;;;;;;;;;;;;;;;;10414998;28;19925;-63
2022/09/25 09:44:15;;;;;;;;;;;;;;;;;;10415546;28;19973;-64
2022/09/25 09:49:17;;;;;;;;;;;;;;;;;;10415443;28;19975;-66
2022/09/25 09:54:20;;;;;;;;;;;;;;;;;;10414691;28;19929;-66
2022/09/25 09:59:22;;;;;;;;;;;;;;;;;;10414918;28;19990;-66
2022/09/25 10:04:25;;;;;;;;;;;;;;;;;;10414454;28;19925;-66
2022/09/25 10:09:27;;;;;;;;;;;;;;;;;;10417899;28;19929;-66
2022/09/25 10:14:29;;;;;;;;;;;;;;;;;;10421937;28;20360;-66
2022/09/25 10:19:31;;;;;;;;;;;;;;;;;;10422448;28;19971;-67
2022/09/25 10:24:33;;;;;;;;;;;;;;;;;;10421629;28;20296;-66
2022/09/25 10:29:35;;;;;;;;;;;;;;;;;;10404566;28;19929;-66
2022/09/25 10:34:39;;;;;;;;;;;;;;;;;;10421817;28;19925;-67
2022/09/25 10:39:41;;;;;;;;;;;;;;;;;;10421089;28;20299;-67
2022/09/25 10:44:46;;;;;;;;;;;;;;;;;;10421495;28;19925;-66
2022/09/25 10:55:09;;;;;;;;;;;;;;;;;;10420390;28;19924;-66
2022/09/25 11:00:12;;;;;;;;;;;;;;;;;;10420087;28;19975;-66
2022/09/25 11:05:14;;;;;;;;;;;;;;;;;;10420702;28;19925;-67
2022/09/25 11:10:18;;;;;;;;;;;;;;;;;;10420532;28;19925;-67
2022/09/25 11:15:20;;;;;;;;;;;;;;;;;;10420240;28;19925;-66
2022/09/25 11:20:28;;;;;;;;;;;;;;;;;;10419315;28;19925;-65
2022/09/25 11:25:30;;;;;;;;;;;;;;;;;;10419296;28;19929;-66
2022/09/25 11:30:32;;;;;;;;;;;;;;;;;;10419738;28;19925;-66
2022/09/25 11:35:35;;;;;;;;;;;;;;;;;;10418796;28;19996;-66
2022/09/25 11:45:58;;;;;;;;;;;;;;;;;;10419068;28;19925;-66
2022/09/25 11:51:00;;;;;;;;;;;;;;;;;;10418265;28;20391;-66
2022/09/25 11:56:02;;;;;;;;;;;;;;;;;;10418589;28;19925;-65
2022/09/25 12:01:04;;;;;;;;;;;;;;;;;;10418671;28;19925;-66
2022/09/25 12:06:06;;;;;;;;;;;;;;;;;;10417630;28;20372;-66
2022/09/25 12:11:10;;;;;;;;;;;;;;;;;;10417498;28;20327;-64
2022/09/25 12:16:12;;;;;;;;;;;;;;;;;;10417793;28;19929;-66
2022/09/25 12:21:14;;;;;;;;;;;;;;;;;;10417118;28;19925;-66
2022/09/25 12:26:16;;;;;;;;;;;;;;;;;;10417584;28;19979;-65
2022/09/25 12:31:18;;;;;;;;;;;;;;;;;;10416650;28;20372;-65
2022/09/25 12:36:21;;;;;;;;;;;;;;;;;;10417194;28;19929;-62
2022/09/25 12:41:23;;;;;;;;;;;;;;;;;;10416393;28;20376;-63
2022/09/25 12:46:25;;;;;;;;;;;;;;;;;;10416245;28;19925;-64
2022/09/25 12:51:27;;;;;;;;;;;;;;;;;;10416647;28;20004;-64
2022/09/25 12:56:30;;;;;;;;;;;;;;;;;;10415940;28;19925;-64
2022/09/25 13:01:32;;;;;;;;;;;;;;;;;;10398622;28;19925;-64
2022/09/25 13:06:34;;;;;;;;;;;;;;;;;;10415676;28;19948;-64
2022/09/25 13:11:37;;;;;;;;;;;;;;;;;;10416084;28;19933;-64
2022/09/25 13:16:39;;;;;;;;;;;;;;;;;;10416100;28;19925;-64
2022/09/25 13:21:41;;;;;;;;;;;;;;;;;;10415408;28;20300;-63
2022/09/25 13:26:44;;;;;;;;;;;;;;;;;;10415840;28;19928;-63
2022/09/25 13:31:46;;;;;;;;;;;;;;;;;;10415733;28;19926;-63
2022/09/25 13:36:48;;;;;;;;;;;;;;;;;;10397604;28;19925;-63
2022/09/25 13:41:50;;;;;;;;;;;;;;;;;;10414970;28;20423;-63
2022/09/25 13:46:53;;;;;;;;;;;;;;;;;;10422453;28;19925;-63
2022/09/25 13:51:55;;;;;;;;;;;;;;;;;;10423444;28;19971;-63
2022/09/25 13:56:57;;;;;;;;;;;;;;;;;;10422763;28;20380;-64
2022/09/25 14:01:59;;;;;;;;;;;;;;;;;;10422314;28;19936;-63
2022/09/25 14:07:01;;;;;;;;;;;;;;;;;;10422940;28;19936;-62
2022/09/25 14:12:03;;;;;;;;;;;;;;;;;;10422067;28;20434;-62
2022/09/25 14:17:08;;;;;;;;;;;;;;;;;;10422600;28;19925;-63
2022/09/25 14:22:11;;;;;;;;;;;;;;;;;;10423035;28;19933;-64
2022/09/25 14:27:13;;;;;;;;;;;;;;;;;;10422226;28;19971;-64
2022/09/25 14:32:15;;;;;;;;;;;;;;;;;;10421343;28;19933;-64
2022/09/25 14:37:38;;;;;;;;;;;;;;;;;;10421243;28;19964;-64
2022/09/25 14:42:40;;;;;;;;;;;;;;;;;;10421645;28;19926;-64
2022/09/25 14:47:43;;;;;;;;;;;;;;;;;;10420816;28;19979;-64
2022/09/25 14:52:49;;;;;;;;;;;;;;;;;;10421171;28;19925;-64
2022/09/25 14:57:51;;;;;;;;;;;;;;;;;;10419253;28;19983;-64
2022/09/25 15:02:53;;;;;;;;;;;;;;;;;;10420243;28;19925;-64
2022/09/25 15:07:57;;;;;;;;;;;;;;;;;;10420679;28;19925;-63
2022/09/25 15:12:59;;;;;;;;;;;;;;;;;;10420374;28;19933;-62
2022/09/25 15:18:03;;;;;;;;;;;;;;;;;;10453596;22;19975;-61
2022/09/25 15:23:05;;;;;;;;;;;;;;;;;;10460819;28;19925;-61
2022/09/25 15:28:07;;;;;;;;;;;;;;;;;;10460530;28;19925;-61
2022/09/25 15:33:10;;;;;;;;;;;;;;;;;;10460907;28;19928;-61
2022/09/25 15:38:12;;;;;;;;;;;;;;;;;;10460154;28;20333;-62
2022/09/25 15:43:15;;;;;;;;;;;;;;;;;;10460553;28;19924;-61
2022/09/25 15:48:17;;;;;;;;;;;;;;;;;;10459714;28;19924;-61
2022/09/25 15:53:19;;;;;;;;;;;;;;;;;;10460055;28;19925;-62
2022/09/25 15:58:21;;;;;;;;;;;;;;;;;;10459919;28;19932;-60
2022/09/25 16:08:44;;;;;;;;;;;;;;;;;;10458616;28;19925;-62
2022/09/25 16:13:48;;;;;;;;;;;;;;;;;;10458601;28;20387;-62
2022/09/25 16:18:51;;;;;;;;;;;;;;;;;;10458328;28;20364;-62
2022/09/25 16:23:55;;;;;;;;;;;;;;;;;;10458364;28;20354;-61
2022/09/25 16:28:57;;;;;;;;;;;;;;;;;;10458791;28;19967;-61
2022/09/25 16:34:00;;;;;;;;;;;;;;;;;;10456709;28;20334;-62
2022/09/25 16:39:02;;;;;;;;;;;;;;;;;;10458396;28;19925;-61
2022/09/25 16:44:12;;;;;;;;;;;;;;;;;;10458227;28;19925;-61
2022/09/25 16:49:15;;;;;;;;;;;;;;;;;;10455098;28;19925;-61
2022/09/25 16:54:17;;;;;;;;;;;;;;;;;;10455638;28;19928;-61
2022/09/25 16:59:20;;;;;;;;;;;;;;;;;;10462158;28;19978;-62
2022/09/25 17:04:23;;;;;;;;;;;;;;;;;;10454372;28;20280;-62
2022/09/25 17:09:25;;;;;;;;;;;;;;;;;;10481579;28;20310;-62
2022/09/25 17:14:27;;;;;;;;;;;;;;;;;;10498843;28;19924;-62
2022/09/25 17:19:29;;;;;;;;;;;;;;;;;;10489834;28;20382;-62
2022/09/25 17:24:31;;;;;;;;;;;;;;;;;;10456477;28;19924;-62
2022/09/25 17:29:35;;;;;;;;;;;;;;;;;;10457130;28;19929;-62
2022/09/25 17:34:37;;;;;;;;;;;;;;;;;;10455106;28;19928;-60
2022/09/25 17:39:39;;;;;;;;;;;;;;;;;;10452488;28;20342;-61
2022/09/25 17:44:42;;;;;;;;;;;;;;;;;;10451418;28;19924;-62
2022/09/25 17:49:44;;;;;;;;;;;;;;;;;;10454059;28;19936;-62
2022/09/25 17:54:46;;;;;;;;;;;;;;;;;;10452086;28;20383;-62
2022/09/25 17:59:48;;;;;;;;;;;;;;;;;;10449694;28;19924;-61
2022/09/25 18:04:50;;;;;;;;;;;;;;;;;;10489991;28;19971;-62
2022/09/25 18:09:52;;;;;;;;;;;;;;;;;;10445108;28;19928;-62
2022/09/25 18:14:55;;;;;;;;;;;;;;;;;;10436061;28;20046;-62
2022/09/25 18:25:18;;;;;;;;;;;;;;;;;;10452004;28;20299;-62
2022/09/25 18:30:21;;;;;;;;;;;;;;;;;;10447008;28;20300;-61
2022/09/25 18:35:23;;;;;;;;;;;;;;;;;;10455159;28;19940;-62
2022/09/25 18:40:26;;;;;;;;;;;;;;;;;;10456682;28;20334;-62
2022/09/25 18:45:28;;;;;;;;;;;;;;;;;;10456602;28;19925;-62
2022/09/25 18:50:31;;;;;;;;;;;;;;;;;;10460015;28;20268;-61
2022/09/25 18:55:33;;;;;;;;;;;;;;;;;;10461532;28;19925;-61
2022/09/25 19:00:35;;;;;;;;;;;;;;;;;;10458573;28;19925;-61
2022/09/25 19:05:38;;;;;;;;;;;;;;;;;;10460681;28;19932;-61
2022/09/25 19:10:40;;;;;;;;;;;;;;;;;;10479796;28;20367;-61
2022/09/25 19:15:42;;;;;;;;;;;;;;;;;;10473731;28;19978;-61
2022/09/25 19:20:44;;;;;;;;;;;;;;;;;;10456213;28;19928;-61
2022/09/25 19:25:46;;;;;;;;;;;;;;;;;;10456878;28;19928;-61
2022/09/25 19:30:48;;;;;;;;;;;;;;;;;;10458011;28;19925;-61
2022/09/25 19:35:50;;;;;;;;;;;;;;;;;;10455219;28;19940;-61
2022/09/25 19:40:52;;;;;;;;;;;;;;;;;;10453719;28;20318;-61
2022/09/25 19:45:54;;;;;;;;;;;;;;;;;;10455122;28;19925;-61
2022/09/25 19:50:57;;;;;;;;;;;;;;;;;;10456894;28;19933;-60
2022/09/25 19:55:59;;;;;;;;;;;;;;;;;;10454767;28;20330;-60
2022/09/25 20:01:01;;;;;;;;;;;;;;;;;;10454552;28;19924;-60
2022/09/25 20:06:03;;;;;;;;;;;;;;;;;;10455200;28;19929;-60
2022/09/25 20:11:05;;;;;;;;;;;;;;;;;;10454178;28;19925;-60
2022/09/25 20:16:07;;;;;;;;;;;;;;;;;;10456566;28;19982;-60
2022/09/25 20:21:10;;;;;;;;;;;;;;;;;;10431807;28;19925;-60
2022/09/25 20:26:12;;;;;;;;;;;;;;;;;;10456170;28;19925;-60
2022/09/25 20:31:14;;;;;;;;;;;;;;;;;;10457160;28;19951;-60
2022/09/25 20:36:16;;;;;;;;;;;;;;;;;;10454143;28;19933;-60
2022/09/25 20:41:18;;;;;;;;;;;;;;;;;;10452038;28;19979;-60
2022/09/25 20:46:20;;;;;;;;;;;;;;;;;;10453540;28;20342;-60
2022/09/25 20:51:25;;;;;;;;;;;;;;;;;;10451159;28;19975;-60
2022/09/25 20:56:28;;;;;;;;;;;;;;;;;;10450929;28;19929;-60
2022/09/25 21:01:30;;;;;;;;;;;;;;;;;;10453525;28;19932;-60
2022/09/25 21:06:32;;;;;;;;;;;;;;;;;;10453169;28;19956;-61
2022/09/25 21:11:34;;;;;;;;;;;;;;;;;;10453049;28;19929;-60
2022/09/25 21:16:36;;;;;;;;;;;;;;;;;;10454395;28;19979;-61
2022/09/25 21:21:38;;;;;;;;;;;;;;;;;;10455163;28;19928;-60
2022/09/25 21:26:41;;;;;;;;;;;;;;;;;;10454461;28;19928;-60
2022/09/25 21:31:43;;;;;;;;;;;;;;;;;;10455367;28;19979;-60
2022/09/25 21:36:50;;;;;;;;;;;;;;;;;;10455104;28;19925;-61
2022/09/25 21:41:52;;;;;;;;;;;;;;;;;;10456301;28;19979;-60
2022/09/25 21:46:54;;;;;;;;;;;;;;;;;;10455225;28;20392;-60
2022/09/25 21:51:56;;;;;;;;;;;;;;;;;;10455732;28;19971;-60
2022/09/25 21:56:58;;;;;;;;;;;;;;;;;;10456552;28;19928;-60
2022/09/25 22:02:00;;;;;;;;;;;;;;;;;;10452051;28;19933;-60
2022/09/25 22:07:03;;;;;;;;;;;;;;;;;;10461216;28;20261;-60
2022/09/25 22:12:05;;;;;;;;;;;;;;;;;;10461672;28;19924;-60
2022/09/25 22:17:07;;;;;;;;;;;;;;;;;;10463474;28;19924;-61
2022/09/25 22:22:09;;;;;;;;;;;;;;;;;;10463159;28;20421;-61
2022/09/25 22:27:11;;;;;;;;;;;;;;;;;;10459918;28;19979;-60
2022/09/25 22:32:13;;;;;;;;;;;;;;;;;;10461783;28;20384;-60
2022/09/25 22:37:17;;;;;;;;;;;;;;;;;;10462137;28;19925;-60
2022/09/25 22:42:19;;;;;;;;;;;;;;;;;;10460520;28;19929;-60
2022/09/25 22:47:21;;;;;;;;;;;;;;;;;;10460553;28;20445;-61
2022/09/25 22:52:23;;;;;;;;;;;;;;;;;;10460766;28;19925;-60
2022/09/25 22:57:25;;;;;;;;;;;;;;;;;;10461505;28;19925;-60
2022/09/25 23:02:27;;;;;;;;;;;;;;;;;;10461667;28;20322;-60
2022/09/25 23:07:29;;;;;;;;;;;;;;;;;;10458652;28;19929;-60
2022/09/25 23:12:31;;;;;;;;;;;;;;;;;;10460301;28;19991;-60
2022/09/25 23:17:33;;;;;;;;;;;;;;;;;;10460031;28;19929;-60
2022/09/25 23:22:35;;;;;;;;;;;;;;;;;;10458142;28;20335;-60
2022/09/25 23:27:37;;;;;;;;;;;;;;;;;;10458124;28;19929;-61
2022/09/25 23:32:39;;;;;;;;;;;;;;;;;;10458667;28;19925;-60
2022/09/25 23:37:41;;;;;;;;;;;;;;;;;;10455771;28;19925;-60
2022/09/25 23:42:43;;;;;;;;;;;;;;;;;;10460672;28;19929;-60
2022/09/25 23:47:45;;;;;;;;;;;;;;;;;;10459831;28;20394;-60
2022/09/25 23:52:47;;;;;;;;;;;;;;;;;;10454096;28;19933;-60
2022/09/25 23:57:49;;;;;;;;;;;;;;;;;;10459045;28;19925;-61
